Nearby METAR Reports

 

KMGE - Dobbins Afb/Marietta, Ga, USA
Distance from station: ENE 10mi, 17km
Updated: Sat, 29-Apr-2017 10:58am EDT
Mostly cloudy
Mostly cloudy
 Wind from S
Wind: S 8 mph , 13 km/h
Temperature: 79°F , 26°C
Dew Point: 66°F , 19°C
Humidity: 65%
Barometer: 30.16 inHg , 1021.3 hPa
Clouds: Mostly cloudy
Visibility: 10 miles , 16 km
Cloud details: Partly cloudy 6000 ft
Mostly cloudy 25000 ft
2017/04/29 14:58 KMGE 291458Z 17007KT 10SM SCT060 BKN250 26/19 A3016 RMK AO2A SLP204 T02640189 $
KFTY - Fulton, Ga, USA
Distance from station: ESE 11mi, 18km
Updated: Sat, 29-Apr-2017 10:53am EDT
Partly cloudy
Partly cloudy
 Wind from SSE
Wind: SSE 8 mph , 13 km/h
Temperature: 81°F , 27°C
Heat Index: 84°F , 29°C
Dew Point: 68°F , 20°C
Humidity: 66%
Barometer: 30.15 inHg , 1021 hPa
Clouds: Partly cloudy
Visibility: 10 miles , 16 km
Cloud details: Partly cloudy 5500 ft
2017/04/29 14:53 KFTY 291453Z 15007KT 10SM SCT055 27/20 A3015 RMK AO2 SLP199 T02670200 50005
 
KRYY - Marietta Mccolum, Ga, USA
Distance from station: NNE 12mi, 19km
Updated: Sat, 29-Apr-2017 10:47am EDT
Mostly cloudy
Mostly cloudy
 Wind from S
Wind: S 7 mph , 11 km/h
Temperature: 79°F , 26°C
Dew Point: 66°F , 19°C
Humidity: 65%
Barometer: 30.12 inHg , 1020 hPa
Clouds: Mostly cloudy
Visibility: 10 miles , 16 km
Cloud details: Mostly cloudy 6000 ft
2017/04/29 14:47 KRYY 291447Z 17006KT 10SM BKN060 26/19 A3012
KPUJ - Paulding, Ga, USA
Distance from station: WNW 15mi, 24km
Updated: Sat, 29-Apr-2017 11:15am EDT
Mostly cloudy
Mostly cloudy
 Wind from SSE
Wind: SSE 8 mph , 13 km/h
Temperature: 82°F , 28°C
Heat Index: 87°F , 31°C
Dew Point: 73°F , 23°C
Humidity: 74%
Barometer: 30.16 inHg , 1021.3 hPa
Clouds: Mostly cloudy
Visibility: 7 miles , 11 km
Cloud details: Partly cloudy 4800 ft
Mostly cloudy 5500 ft
2017/04/29 15:15 KPUJ 291515Z AUTO 16007KT 120V190 7SM SCT048 BKN055 28/23 A3016 RMK AO2
 
KATL - Atlanta, Ga, USA
Distance from station: SE 21mi, 33km
Updated: Sat, 29-Apr-2017 10:52am EDT
Partly cloudy
Partly cloudy
 Wind from S
Wind: S 9 mph , 15 km/h
Temperature: 79°F , 26°C
Dew Point: 66°F , 19°C
Humidity: 65%
Barometer: 30.16 inHg , 1021.3 hPa
Clouds: Partly cloudy
Visibility: 10 miles , 16 km
Cloud details: Partly cloudy 5500 ft
Partly cloudy 25000 ft
2017/04/29 14:52 KATL 291452Z 17008KT 10SM SCT055 SCT250 26/19 A3016 RMK AO2 SLP203 T02610194 50007
KVPC - Cartersville, Ga, USA
Distance from station: NNW 21mi, 34km
Updated: Sat, 29-Apr-2017 10:53am EDT
Light rain, Clear
Light rain, Clear
 Wind from SSE
Wind: SSE 8 mph , 13 km/h
Temperature: 81°F , 27°C
Heat Index: 84°F , 29°C
Dew Point: 68°F , 20°C
Humidity: 66%
Barometer: 30.14 inHg , 1020.7 hPa
Summary: Light rain
Clouds: Clear
Visibility: 10 miles , 16 km
2017/04/29 14:53 KVPC 291453Z AUTO 15007KT 120V190 10SM -RA CLR 27/20 A3014 RMK AO2 RAB07 SLP195 6//// T02670200 51003 PNO $
 
KPDK - Peachtree/Dekalb, Ga, USA
Distance from station: E 22mi, 36km
Updated: Sat, 29-Apr-2017 10:53am EDT
Mostly cloudy
Mostly cloudy
 Wind from SSE
Wind: SSE 5 mph , 7 km/h
Temperature: 79°F , 26°C
Dew Point: 64°F , 18°C
Humidity: 61%
Barometer: 30.17 inHg , 1021.7 hPa
Clouds: Mostly cloudy
Visibility: 10 miles , 16 km
Cloud details: Mostly cloudy 5500 ft
2017/04/29 14:53 KPDK 291453Z 15004KT 10SM BKN055 26/18 A3017 RMK AO2 SLP198 T02610183 50004
KCTJ - Carrollton/Gray, Ga, USA
Distance from station: WSW 31mi, 50km
Updated: Sat, 29-Apr-2017 11:15am EDT
Mostly cloudy
Mostly cloudy
 Wind from SE
Wind: SE 9 mph , 15 km/h, Gust: 17 mph , 28 km/h
Temperature: 79°F , 26°C
Dew Point: 68°F , 20°C
Humidity: 70%
Barometer: 30.18 inHg , 1022 hPa
Clouds: Mostly cloudy
Visibility: 10 miles , 16 km
Cloud details: Partly cloudy 4500 ft
Mostly cloudy 5500 ft
2017/04/29 15:15 KCTJ 291515Z AUTO 14008G15KT 10SM SCT045 BKN055 26/20 A3018 RMK AO2 T02600198
 
KCNI - Canton/Cherokee, Ga, USA
Distance from station: NNE 35mi, 56km
Updated: Sat, 29-Apr-2017 11:15am EDT
Mostly cloudy
Mostly cloudy
 Wind from SSE
Wind: SSE 3 mph , 6 km/h
Temperature: 79°F , 26°C
Dew Point: 59°F , 15°C
Humidity: 51%
Barometer: 30.19 inHg , 1022.4 hPa
Clouds: Mostly cloudy
Visibility: 10 miles , 16 km
Cloud details: Mostly cloudy 5500 ft
2017/04/29 15:15 KCNI 291515Z AUTO 15003KT 10SM BKN055 26/15 A3019 RMK AO2
KFFC - Peachtree City, Ga, USA
Distance from station: S 36mi, 58km
Updated: Sat, 29-Apr-2017 10:53am EDT
Clear
Clear
 Wind from SE
Wind: SE 7 mph , 11 km/h
Temperature: 81°F , 27°C
Heat Index: 84°F , 29°C
Dew Point: 68°F , 20°C
Humidity: 66%
Barometer: 30.16 inHg , 1021.3 hPa
Clouds: Clear
Visibility: 10 miles , 16 km
2017/04/29 14:53 KFFC 291453Z AUTO 14006KT 10SM CLR 27/20 A3016 RMK AO2 SLP206 T02720200 50006
 
KCCO - Newnan, Ga, USA
Distance from station: S 38mi, 61km
Updated: Sat, 29-Apr-2017 11:15am EDT
Clear
Clear
 Wind from S
Wind: S 10 mph , 17 km/h
Temperature: 82°F , 28°C
Heat Index: 86°F , 30°C
Dew Point: 70°F , 21°C
Humidity: 66%
Barometer: 30.16 inHg , 1021.3 hPa
Clouds: Clear
Visibility: 10 miles , 16 km
2017/04/29 15:15 KCCO 291515Z AUTO 18009KT 10SM CLR 28/21 A3016 RMK AO2 T02750212
KLZU - Lawrenceville, Ga, USA
Distance from station: ENE 42mi, 68km
Updated: Sat, 29-Apr-2017 10:55am EDT
Mostly cloudy
Mostly cloudy
 Wind from SSE
Wind: SSE 9 mph , 15 km/h
Temperature: 79°F , 26°C
Dew Point: 66°F , 19°C
Humidity: 65%
Barometer: 30.18 inHg , 1022 hPa
Clouds: Mostly cloudy
Visibility: 07 miles , 11 km
Cloud details: Mostly cloudy 5500 ft
2017/04/29 14:55 KLZU 291455Z 16008KT 07SM BKN055 26/19 A3018 RMK ATIS F RWY 7 LL
 
KRMG - Rome, Ga, USA
Distance from station: NW 44mi, 70km
Updated: Sat, 29-Apr-2017 10:53am EDT
Clear
Clear
 Wind from SE
Wind: SE 13 mph , 20 km/h
Temperature: 81°F , 27°C
Heat Index: 83°F , 28°C
Dew Point: 66°F , 19°C
Humidity: 62%
Barometer: 30.12 inHg , 1020 hPa
Clouds: Clear
Visibility: 10 miles , 16 km
2017/04/29 14:53 KRMG 291453Z AUTO 14011KT 10SM CLR 27/19 A3012 RMK AO2 SLP188 T02720194 50006
K6A2 - Griffin-Spalding, Ga, USA
Distance from station: SSE 49mi, 80km
Updated: Sat, 29-Apr-2017 11:15am EDT
Clear
Clear
 Wind from SSE
Wind: SSE 8 mph , 13 km/h
Temperature: 81°F , 27°C
Heat Index: 85°F , 29°C
Dew Point: 72°F , 22°C
Humidity: 74%
Barometer: 30.17 inHg , 1021.7 hPa
Clouds: Clear
Visibility: 10 miles , 16 km
2017/04/29 15:15 K6A2 291515Z AUTO 15007KT 110V170 10SM CLR 27/22 A3017 RMK AO2